Time;durP1;ratioP1;P1;durP2;ratioP2;P2;SDS_P1;SDS_P2;PMS_P1;PMS_P2;Temp;Humidity;BMP_temperature;BMP_pressure;BME280_temperature;BME280_humidity;BME280_pressure;Samples;Min_cycle;Max_cycle;Signal;HPM_P1;HPM_P2
2023/05/27 00:00:09;;;;;;;13.18;4.60;;;;;;;11.12;79.20;102552.00;5004227;28;20496;-71
2023/05/27 00:02:35;;;;;;;18.33;4.60;;;;;;;11.10;79.17;102553.91;4993564;28;20175;-72
2023/05/27 00:05:01;;;;;;;13.70;4.65;;;;;;;11.06;79.19;102548.09;4968628;28;20049;-72
2023/05/27 00:07:27;;;;;;;16.63;5.25;;;;;;;11.02;79.19;102549.28;4975866;28;20034;-72
2023/05/27 00:09:53;;;;;;;15.52;4.95;;;;;;;10.98;79.48;102545.28;4979068;28;20381;-72
2023/05/27 00:12:18;;;;;;;26.20;6.13;;;;;;;10.98;79.88;102554.81;4995887;28;20041;-72
2023/05/27 00:14:44;;;;;;;22.58;5.05;;;;;;;10.96;79.65;102541.13;4995587;28;20064;-72
2023/05/27 00:17:13;;;;;;;20.80;4.88;;;;;;;10.91;79.94;102547.50;4983579;28;20026;-72
2023/05/27 00:19:42;;;;;;;19.05;4.55;;;;;;;10.86;79.99;102539.22;4978328;28;20042;-71
2023/05/27 00:22:08;;;;;;;22.75;5.60;;;;;;;10.81;80.55;102543.09;4979743;28;20034;-71
2023/05/27 00:24:39;;;;;;;17.45;4.53;;;;;;;10.75;80.81;102538.38;4993937;28;20486;-71
2023/05/27 00:27:08;;;;;;;19.80;4.63;;;;;;;10.71;80.99;102533.41;4996882;28;20744;-72
2023/05/27 00:29:35;;;;;;;20.40;5.13;;;;;;;10.69;81.16;102545.69;5000270;28;20129;-72
2023/05/27 00:32:02;;;;;;;14.75;4.50;;;;;;;10.68;80.93;102538.84;4963931;28;20447;-72
2023/05/27 00:34:31;;;;;;;17.33;4.93;;;;;;;10.61;80.93;102537.66;4977525;28;20030;-71
2023/05/27 00:36:57;;;;;;;16.98;4.75;;;;;;;10.61;80.97;102544.59;5005365;28;21577;-72
2023/05/27 00:39:22;;;;;;;19.65;4.93;;;;;;;10.59;80.63;102538.72;4981299;28;20585;-72
2023/05/27 00:41:50;;;;;;;23.30;5.57;;;;;;;10.57;80.85;102541.41;5001527;28;20022;-72
2023/05/27 00:44:16;;;;;;;13.05;4.63;;;;;;;10.54;80.82;102541.63;5000711;28;20049;-72
2023/05/27 00:46:43;;;;;;;19.67;5.43;;;;;;;10.48;81.11;102535.13;4967185;28;20042;-72
2023/05/27 00:49:08;;;;;;;17.95;4.82;;;;;;;10.45;81.16;102539.72;4981489;28;20092;-71
2023/05/27 00:51:35;;;;;;;18.80;5.32;;;;;;;10.42;81.44;102537.34;4971753;28;20033;-73
2023/05/27 00:54:00;;;;;;;23.17;4.80;;;;;;;10.40;81.18;102544.44;4995638;28;20052;-72
2023/05/27 00:56:26;;;;;;;23.45;5.15;;;;;;;10.32;80.95;102539.78;4981090;28;20041;-71
2023/05/27 00:58:51;;;;;;;20.20;5.00;;;;;;;10.24;81.47;102545.50;4982869;28;20060;-71
2023/05/27 01:01:19;;;;;;;26.05;5.20;;;;;;;10.22;81.73;102541.38;5004380;28;20439;-72
2023/05/27 01:03:47;;;;;;;23.45;6.38;;;;;;;10.16;81.61;102540.03;4980800;28;20034;-72
2023/05/27 01:06:40;;;;;;;19.55;4.78;;;;;;;10.14;81.59;102545.34;5000309;28;20045;-72
2023/05/27 01:09:27;;;;;;;25.52;5.07;;;;;;;10.14;81.51;102541.91;4964795;28;20046;-72
2023/05/27 01:12:15;;;;;;;22.98;4.95;;;;;;;10.12;81.80;102533.44;4999636;28;20040;-71
2023/05/27 01:14:43;;;;;;;18.40;5.20;;;;;;;10.06;81.95;102541.66;4964104;28;20064;-71
2023/05/27 01:17:11;;;;;;;20.17;5.13;;;;;;;10.05;82.11;102537.41;4983583;28;20034;-72
2023/05/27 01:19:44;;;;;;;34.22;5.32;;;;;;;10.01;82.12;102533.38;4977302;28;20037;-71
2023/05/27 01:22:14;;;;;;;17.45;4.45;;;;;;;9.99;82.34;102532.66;4964938;28;20026;-72
2023/05/27 01:24:43;;;;;;;15.00;4.32;;;;;;;9.95;82.18;102524.28;4998175;28;20084;-71
2023/05/27 01:27:15;;;;;;;25.25;4.80;;;;;;;9.94;82.47;102522.59;4966329;28;20476;-72
2023/05/27 01:29:42;;;;;;;20.75;4.85;;;;;;;9.94;81.81;102518.28;4962721;28;20053;-72
2023/05/27 01:32:40;;;;;;;18.80;3.97;;;;;;;9.89;82.24;102516.94;4993096;28;20060;-71
2023/05/27 01:35:17;;;;;;;16.23;5.45;;;;;;;9.80;81.95;102522.78;4966820;28;20349;-72
2023/05/27 01:37:45;;;;;;;23.23;4.93;;;;;;;9.77;82.35;102518.63;4976501;28;20120;-72
2023/05/27 01:40:12;;;;;;;20.15;4.97;;;;;;;9.71;82.48;102519.06;4962395;28;20034;-72
2023/05/27 01:42:40;;;;;;;19.80;4.90;;;;;;;9.71;82.70;102516.47;4949577;28;20036;-72
2023/05/27 01:45:07;;;;;;;20.17;5.07;;;;;;;9.60;83.40;102506.88;4974571;28;20088;-72
2023/05/27 01:47:34;;;;;;;18.08;5.13;;;;;;;9.59;83.52;102510.41;4976379;28;20038;-72
2023/05/27 01:50:00;;;;;;;21.05;5.25;;;;;;;9.55;83.69;102509.78;4982865;28;20042;-72
2023/05/27 01:52:27;;;;;;;22.85;4.95;;;;;;;9.54;83.58;102509.91;4993325;28;20328;-72
2023/05/27 01:54:52;;;;;;;24.85;5.07;;;;;;;9.51;84.10;102507.50;4961721;28;20053;-72
2023/05/27 01:57:18;;;;;;;15.80;4.88;;;;;;;9.47;84.06;102504.31;4998498;28;20077;-72
2023/05/27 01:59:44;;;;;;;21.35;5.53;;;;;;;9.49;84.30;102504.19;4983156;28;20045;-72
2023/05/27 02:02:09;;;;;;;16.77;4.40;;;;;;;9.42;84.77;102503.81;4980002;28;20404;-71
2023/05/27 02:04:35;;;;;;;23.88;5.65;;;;;;;9.43;84.84;102504.63;4964455;28;20054;-72
2023/05/27 02:07:00;;;;;;;20.70;4.50;;;;;;;9.37;84.94;102503.31;4978437;28;20046;-72
2023/05/27 02:09:26;;;;;;;16.65;5.00;;;;;;;9.37;85.43;102503.31;4963108;28;20125;-72
2023/05/27 02:11:52;;;;;;;28.30;5.10;;;;;;;9.39;84.87;102514.38;4997823;28;20040;-72
2023/05/27 02:14:18;;;;;;;21.20;5.55;;;;;;;9.35;85.23;102510.34;4979462;28;20041;-72
2023/05/27 02:16:44;;;;;;;18.70;5.18;;;;;;;9.30;85.35;102510.66;4982110;28;20033;-72
2023/05/27 02:19:10;;;;;;;16.63;5.10;;;;;;;9.25;85.82;102511.91;4979879;28;20063;-72
2023/05/27 02:21:35;;;;;;;25.35;4.97;;;;;;;9.23;86.01;102517.22;4964171;28;20046;-72
2023/05/27 02:24:02;;;;;;;27.17;5.30;;;;;;;9.15;86.20;102512.56;4980166;28;20058;-72
2023/05/27 02:26:27;;;;;;;20.65;5.07;;;;;;;9.13;86.57;102511.81;4981059;28;20026;-72
2023/05/27 02:28:53;;;;;;;21.75;5.75;;;;;;;9.10;86.77;102508.63;4978407;28;20112;-73
2023/05/27 02:31:19;;;;;;;20.33;4.30;;;;;;;9.07;87.10;102506.25;4981022;28;20018;-72
2023/05/27 02:33:45;;;;;;;20.85;5.32;;;;;;;9.06;86.99;102509.75;4979218;28;20127;-72
2023/05/27 02:36:12;;;;;;;22.77;5.47;;;;;;;8.98;87.45;102505.09;4980206;28;20036;-71
2023/05/27 02:38:38;;;;;;;15.75;5.30;;;;;;;8.98;88.00;102506.84;4965895;28;20049;-71
2023/05/27 02:41:03;;;;;;;21.85;4.68;;;;;;;8.98;88.15;102510.25;4996257;28;20592;-72
2023/05/27 02:43:29;;;;;;;20.63;5.07;;;;;;;8.98;88.23;102510.25;4976019;28;20045;-72
2023/05/27 02:45:54;;;;;;;19.88;4.50;;;;;;;8.95;88.25;102500.16;4964403;28;20468;-72
2023/05/27 02:48:20;;;;;;;15.70;5.15;;;;;;;8.95;88.59;102505.31;4981602;28;20093;-72
2023/05/27 02:50:45;;;;;;;22.50;4.97;;;;;;;8.93;88.55;102512.34;4961239;28;20049;-73
2023/05/27 02:53:11;;;;;;;20.60;5.60;;;;;;;8.91;88.79;102507.28;4980634;28;20420;-72
2023/05/27 02:55:36;;;;;;;23.60;6.07;;;;;;;8.86;88.76;102501.59;4995117;28;20042;-72
2023/05/27 02:58:04;;;;;;;27.52;6.07;;;;;;;8.84;89.02;102497.44;4978277;28;20036;-71
2023/05/27 03:00:31;;;;;;;21.75;5.35;;;;;;;8.82;89.05;102492.38;4983056;28;20123;-71
2023/05/27 03:02:56;;;;;;;22.38;5.30;;;;;;;8.77;89.18;102505.59;4965859;28;20374;-72
2023/05/27 03:05:22;;;;;;;25.95;5.85;;;;;;;8.74;89.36;102505.00;4997683;28;20041;-72
2023/05/27 03:07:49;;;;;;;31.48;5.50;;;;;;;8.70;90.01;102501.78;4979593;28;20029;-73
2023/05/27 03:10:14;;;;;;;21.30;4.80;;;;;;;8.68;90.12;102503.66;4980219;28;20316;-72
2023/05/27 03:12:40;;;;;;;19.70;5.55;;;;;;;8.64;90.46;102509.13;5000197;28;20089;-72
2023/05/27 03:15:06;;;;;;;19.42;5.57;;;;;;;8.60;90.60;102505.09;4982582;28;20061;-72
2023/05/27 03:17:36;;;;;;;20.40;5.43;;;;;;;8.58;90.73;102503.41;4998103;28;20092;-72
2023/05/27 03:20:03;;;;;;;20.95;5.40;;;;;;;8.60;90.42;102498.16;4978817;28;20104;-72
2023/05/27 03:22:31;;;;;;;21.42;5.85;;;;;;;8.57;90.48;102491.44;4986513;28;20496;-72
2023/05/27 03:24:57;;;;;;;16.42;4.90;;;;;;;8.54;90.81;102495.97;4983474;28;20057;-72
2023/05/27 03:27:22;;;;;;;25.52;6.00;;;;;;;8.47;90.85;102497.31;4967169;28;20018;-71
2023/05/27 03:29:48;;;;;;;16.60;5.22;;;;;;;8.44;91.34;102498.34;4983527;28;20053;-72
2023/05/27 03:32:14;;;;;;;20.27;5.15;;;;;;;8.41;91.54;102490.75;4999142;28;20030;-71
2023/05/27 03:34:41;;;;;;;25.63;5.90;;;;;;;8.36;91.89;102495.38;4969410;28;20041;-72
2023/05/27 03:37:07;;;;;;;24.00;6.15;;;;;;;8.36;91.92;102488.47;4985724;28;20204;-72
2023/05/27 03:39:49;;;;;;;23.00;5.95;;;;;;;8.41;91.83;102492.50;4981787;28;20425;-72
2023/05/27 03:42:14;;;;;;;28.20;5.78;;;;;;;8.38;91.60;102490.94;4970946;28;20037;-72
2023/05/27 03:44:40;;;;;;;21.65;5.70;;;;;;;8.35;91.91;102491.97;4967366;28;20540;-71
2023/05/27 03:47:05;;;;;;;24.10;5.93;;;;;;;8.34;91.77;102490.34;4997461;28;20224;-72
2023/05/27 03:49:32;;;;;;;18.30;5.80;;;;;;;8.32;91.85;102487.00;4967958;28;20046;-72
2023/05/27 03:51:58;;;;;;;28.48;5.80;;;;;;;8.34;92.16;102489.47;4983729;28;20161;-72
2023/05/27 03:54:23;;;;;;;27.83;7.28;;;;;;;8.40;91.92;102496.84;4986250;28;20057;-72
2023/05/27 03:56:51;;;;;;;19.52;5.57;;;;;;;8.33;92.15;102496.41;4982874;28;20404;-71
2023/05/27 03:59:17;;;;;;;22.75;5.65;;;;;;;8.31;92.24;102494.88;4963186;28;20607;-72
2023/05/27 04:01:46;;;;;;;22.30;6.72;;;;;;;8.26;92.61;102492.56;4981659;28;20242;-72
2023/05/27 04:04:12;;;;;;;26.20;6.57;;;;;;;8.22;92.96;102496.28;4980788;28;20574;-72
2023/05/27 04:06:38;;;;;;;21.27;5.72;;;;;;;8.21;93.12;102494.59;4983804;28;20042;-71
2023/05/27 04:09:04;;;;;;;26.15;6.25;;;;;;;8.24;93.11;102499.59;4970908;28;20061;-72
2023/05/27 04:11:30;;;;;;;20.92;6.45;;;;;;;8.20;93.43;102492.97;4980426;28;20113;-72
2023/05/27 04:13:55;;;;;;;22.40;6.30;;;;;;;8.19;93.52;102491.31;4964546;28;20061;-73
2023/05/27 04:16:21;;;;;;;30.58;5.80;;;;;;;8.22;93.84;102496.28;4980741;28;20951;-72
2023/05/27 04:18:48;;;;;;;28.88;6.47;;;;;;;8.24;93.79;102493.59;4980675;28;20046;-72
2023/05/27 04:21:18;;;;;;;26.13;6.70;;;;;;;8.28;93.66;102495.88;4982889;28;20034;-72
2023/05/27 04:23:43;;;;;;;24.05;6.53;;;;;;;8.33;93.70;102487.84;4979020;28;20112;-71
2023/05/27 04:26:09;;;;;;;27.05;7.35;;;;;;;8.34;93.44;102487.75;4981820;28;20105;-72
2023/05/27 04:28:39;;;;;;;22.10;6.10;;;;;;;8.35;93.73;102486.81;4974313;28;20050;-72
2023/05/27 04:31:05;;;;;;;21.05;6.45;;;;;;;8.38;93.60;102493.53;4968877;28;20402;-72
2023/05/27 04:33:40;;;;;;;36.00;7.20;;;;;;;8.41;93.83;102495.09;4977754;28;20365;-71
2023/05/27 04:36:09;;;;;;;19.08;6.38;;;;;;;8.44;93.91;102489.72;4972792;28;20492;-73
2023/05/27 04:38:52;;;;;;;20.90;5.95;;;;;;;8.45;94.10;102488.81;4970651;28;20046;-73
2023/05/27 04:41:20;;;;;;;27.17;6.10;;;;;;;8.47;93.78;102486.97;4983321;28;20538;-72
2023/05/27 04:44:05;;;;;;;31.80;7.22;;;;;;;8.52;93.58;102483.13;4970175;28;20461;-71
2023/05/27 04:46:38;;;;;;;30.20;7.85;;;;;;;8.54;93.69;102488.22;4968865;28;20575;-71
2023/05/27 04:49:04;;;;;;;28.48;6.53;;;;;;;8.62;92.73;102483.34;4967512;28;20068;-71
2023/05/27 04:51:31;;;;;;;27.90;7.85;;;;;;;8.63;93.12;102484.19;4983679;28;20395;-72
2023/05/27 04:53:57;;;;;;;19.95;6.88;;;;;;;8.68;93.55;102477.78;4977798;28;20034;-71
2023/05/27 04:56:23;;;;;;;26.20;6.68;;;;;;;8.66;93.54;102479.63;4970014;28;20223;-72
2023/05/27 04:58:50;;;;;;;26.23;6.53;;;;;;;8.79;93.38;102469.28;4976398;28;20073;-71
2023/05/27 05:01:22;;;;;;;31.55;6.80;;;;;;;8.80;93.18;102475.28;4977152;28;20121;-73
2023/05/27 05:04:12;;;;;;;30.08;7.25;;;;;;;8.84;93.36;102471.59;4977555;28;20108;-71
2023/05/27 05:06:52;;;;;;;23.40;5.82;;;;;;;8.89;93.32;102478.09;4977121;28;20026;-71
2023/05/27 05:09:17;;;;;;;23.20;7.43;;;;;;;8.98;92.97;102483.56;4964358;28;20412;-71
2023/05/27 05:11:44;;;;;;;28.67;7.82;;;;;;;9.05;92.86;102482.22;4978136;28;20053;-71
2023/05/27 05:14:11;;;;;;;25.20;7.80;;;;;;;9.11;92.66;102487.78;4978443;28;20042;-71
2023/05/27 05:16:36;;;;;;;22.17;6.10;;;;;;;9.23;92.61;102478.38;4964764;28;20263;-71
2023/05/27 05:19:02;;;;;;;17.67;5.80;;;;;;;9.32;92.52;102467.38;4977679;28;20496;-71
2023/05/27 05:21:32;;;;;;;27.60;7.43;;;;;;;9.45;91.87;102464.75;4961384;28;20109;-71
2023/05/27 05:23:57;;;;;;;16.85;6.18;;;;;;;9.45;91.56;102472.50;4975768;28;20050;-71
2023/05/27 05:26:23;;;;;;;28.30;6.10;;;;;;;9.57;90.68;102470.84;4977562;28;20444;-71
2023/05/27 05:28:49;;;;;;;32.47;8.63;;;;;;;9.52;89.83;102470.31;4964307;28;20046;-71
2023/05/27 05:31:15;;;;;;;39.22;7.28;;;;;;;9.59;89.53;102473.28;4980101;28;20034;-71
2023/05/27 05:33:41;;;;;;;23.48;6.95;;;;;;;9.66;89.96;102467.59;4962834;28;20084;-71
2023/05/27 05:36:07;;;;;;;21.23;6.05;;;;;;;9.70;88.93;102463.00;4977560;28;20053;-71
2023/05/27 05:38:49;;;;;;;23.42;6.95;;;;;;;9.83;89.75;102466.41;4990480;28;20042;-71
2023/05/27 05:41:15;;;;;;;29.13;6.43;;;;;;;9.89;89.04;102465.13;4975472;28;20061;-71
2023/05/27 05:43:41;;;;;;;31.02;7.10;;;;;;;10.03;87.94;102469.28;4974363;28;20045;-71
2023/05/27 05:46:07;;;;;;;28.80;7.97;;;;;;;10.17;87.57;102474.31;4976948;28;20038;-71
2023/05/27 05:48:32;;;;;;;16.98;5.45;;;;;;;10.32;86.49;102465.44;4973595;28;20112;-72
2023/05/27 05:51:00;;;;;;;29.73;6.25;;;;;;;10.36;86.25;102467.78;4967294;28;20031;-72
2023/05/27 05:53:26;;;;;;;32.58;6.20;;;;;;;10.60;85.64;102460.75;4974791;28;20038;-72
2023/05/27 05:55:52;;;;;;;19.48;5.78;;;;;;;10.89;84.26;102466.34;4963588;28;20520;-72
2023/05/27 05:58:20;;;;;;;24.73;5.90;;;;;;;10.81;82.87;102466.09;4977855;28;20608;-71
2023/05/27 06:00:47;;;;;;;20.40;5.63;;;;;;;11.05;83.29;102470.34;4978604;28;20026;-71
2023/05/27 06:03:29;;;;;;;25.10;6.90;;;;;;;11.06;82.26;102474.59;4993521;28;20464;-72
2023/05/27 06:05:58;;;;;;;26.88;6.35;;;;;;;11.22;82.83;102461.25;4973196;28;20393;-72
2023/05/27 06:08:23;;;;;;;16.55;5.72;;;;;;;11.57;82.36;102461.06;4963195;28;20042;-71
2023/05/27 06:10:59;;;;;;;33.25;6.70;;;;;;;11.73;79.61;102463.25;4976095;28;20401;-71
2023/05/27 06:13:25;;;;;;;24.38;6.22;;;;;;;11.84;78.65;102467.59;4961505;28;20039;-71
2023/05/27 06:15:55;;;;;;;26.52;6.50;;;;;;;11.97;78.04;102452.69;4974398;28;20033;-73
2023/05/27 06:18:21;;;;;;;22.83;6.25;;;;;;;12.31;78.07;102454.31;4990886;28;20393;-72
2023/05/27 06:20:47;;;;;;;23.60;6.22;;;;;;;12.54;76.14;102453.19;4974936;28;20501;-72
2023/05/27 06:23:12;;;;;;;21.00;5.88;;;;;;;12.63;76.14;102449.81;4978903;28;20046;-71
2023/05/27 06:25:53;;;;;;;24.20;5.93;;;;;;;12.93;75.66;102448.19;4975801;28;20046;-71
2023/05/27 06:28:19;;;;;;;21.65;6.07;;;;;;;13.10;74.69;102443.31;4978147;28;20054;-71
2023/05/27 06:30:45;;;;;;;19.73;5.88;;;;;;;13.20;73.44;102442.38;4974467;28;20075;-71
2023/05/27 06:33:12;;;;;;;27.65;6.88;;;;;;;13.46;72.86;102435.88;4994286;28;20050;-72
2023/05/27 06:35:37;;;;;;;19.67;5.13;;;;;;;13.87;71.65;102432.19;4973438;28;20034;-72
2023/05/27 06:38:05;;;;;;;38.03;11.98;;;;;;;14.17;70.11;102435.59;4962296;28;20442;-72
2023/05/27 06:40:30;;;;;;;21.15;6.53;;;;;;;14.42;69.88;102423.72;4974681;28;20034;-72
2023/05/27 06:42:56;;;;;;;27.77;6.20;;;;;;;14.63;67.38;102417.50;4980568;28;20031;-71
2023/05/27 06:45:33;;;;;;;19.00;5.25;;;;;;;14.85;66.20;102424.16;4967658;28;20153;-71
2023/05/27 06:48:15;;;;;;;20.42;5.60;;;;;;;14.83;65.71;102416.47;4993594;28;20097;-72
2023/05/27 06:50:40;;;;;;;18.73;4.78;;;;;;;15.00;65.48;102417.47;4964721;28;20524;-71
2023/05/27 06:53:06;;;;;;;30.20;5.85;;;;;;;15.22;64.12;102410.19;4962703;28;20046;-72
2023/05/27 06:55:41;;;;;;;22.98;5.15;;;;;;;15.08;64.23;102411.53;4967661;28;20496;-72
2023/05/27 06:58:26;;;;;;;21.83;4.95;;;;;;;15.40;63.94;102405.81;4983222;28;20281;-72
2023/05/27 07:00:56;;;;;;;20.10;5.20;;;;;;;15.52;62.56;102402.00;4980705;28;20045;-71
2023/05/27 07:03:26;;;;;;;20.67;5.10;;;;;;;15.86;60.75;102403.09;4977931;28;20570;-72
2023/05/27 07:05:53;;;;;;;16.27;4.35;;;;;;;16.27;59.61;102393.72;4979544;28;20516;-72
2023/05/27 07:08:18;;;;;;;17.15;4.50;;;;;;;16.47;59.07;102391.72;4981018;28;20062;-72
2023/05/27 07:10:44;;;;;;;19.02;5.32;;;;;;;16.87;57.31;102390.25;4969488;28;20133;-72
2023/05/27 07:13:11;;;;;;;21.67;5.65;;;;;;;17.28;57.42;102386.94;4980975;28;20072;-71
2023/05/27 07:15:45;;;;;;;22.17;5.03;;;;;;;17.70;56.26;102384.16;4965841;28;20076;-72
2023/05/27 07:18:11;;;;;;;21.70;4.97;;;;;;;18.02;55.52;102390.38;4959460;28;20440;-72
2023/05/27 07:20:38;;;;;;;26.27;4.13;;;;;;;17.95;54.06;102381.56;4964314;28;20026;-72
2023/05/27 07:23:07;;;;;;;19.83;6.07;;;;;;;17.85;54.93;102378.28;4968879;28;20030;-72
2023/05/27 07:25:34;;;;;;;20.25;4.82;;;;;;;18.20;53.28;102384.13;4981758;28;20332;-72
2023/05/27 07:28:00;;;;;;;24.02;5.15;;;;;;;18.55;53.31;102382.03;4977197;28;20106;-72
2023/05/27 07:30:26;;;;;;;16.30;5.05;;;;;;;18.75;52.22;102387.69;4980269;28;20109;-72
2023/05/27 07:32:57;;;;;;;16.63;5.43;;;;;;;19.28;51.38;102386.09;4966374;28;20030;-72
2023/05/27 07:35:22;;;;;;;14.75;4.75;;;;;;;19.62;51.74;102375.13;4982909;28;20416;-72
2023/05/27 07:37:48;;;;;;;18.50;4.57;;;;;;;19.68;50.85;102378.03;4977907;28;20030;-72
2023/05/27 07:40:13;;;;;;;22.50;5.35;;;;;;;19.74;48.87;102372.09;4985208;28;20094;-72
2023/05/27 07:42:40;;;;;;;16.75;4.63;;;;;;;19.78;48.44;102373.38;4976866;28;20089;-72
2023/05/27 07:45:06;;;;;;;17.20;4.40;;;;;;;20.11;48.06;102373.84;4965180;28;20046;-72
2023/05/27 07:47:32;;;;;;;18.60;4.75;;;;;;;20.31;48.28;102379.41;4964398;28;20022;-72
2023/05/27 07:49:57;;;;;;;18.80;4.20;;;;;;;20.56;47.05;102361.47;4977548;28;20101;-72
2023/05/27 07:52:42;;;;;;;21.42;4.65;;;;;;;20.47;46.63;102365.19;4980941;28;20065;-72
2023/05/27 07:55:25;;;;;;;13.23;3.78;;;;;;;20.79;46.31;102352.63;4973615;28;20048;-72
2023/05/27 07:57:54;;;;;;;13.18;3.83;;;;;;;20.78;45.58;102356.28;4971833;28;20019;-72
2023/05/27 08:00:21;;;;;;;25.13;5.65;;;;;;;20.74;45.82;102355.03;4971408;28;20222;-72
2023/05/27 08:02:53;;;;;;;15.50;4.45;;;;;;;21.04;45.43;102350.47;4978897;28;20057;-72
2023/05/27 08:05:23;;;;;;;21.98;4.95;;;;;;;21.10;45.98;102354.19;4964890;28;20034;-72
2023/05/27 08:08:05;;;;;;;16.50;4.60;;;;;;;21.34;44.68;102353.78;4980343;28;20027;-72
2023/05/27 08:10:54;;;;;;;20.75;6.70;;;;;;;20.94;45.04;102352.59;4980383;28;20556;-72
2023/05/27 08:13:38;;;;;;;20.40;4.90;;;;;;;21.05;45.67;102341.53;4979368;28;20097;-72
2023/05/27 08:16:21;;;;;;;12.82;4.68;;;;;;;21.19;43.98;102332.75;4983570;28;20079;-72
2023/05/27 08:18:58;;;;;;;17.52;4.72;;;;;;;21.11;45.21;102334.69;4991459;28;20274;-72
2023/05/27 08:21:40;;;;;;;19.48;5.10;;;;;;;20.34;45.93;102339.53;4982069;28;20036;-72
2023/05/27 08:24:30;;;;;;;14.27;4.53;;;;;;;20.06;46.41;102336.75;4956412;28;20054;-72
2023/05/27 08:27:18;;;;;;;15.52;4.68;;;;;;;20.31;47.16;102326.72;4964612;28;20532;-72
2023/05/27 08:29:56;;;;;;;15.55;4.63;;;;;;;20.45;45.63;102326.88;4977636;28;20077;-72
2023/05/27 08:32:26;;;;;;;25.65;5.68;;;;;;;20.29;46.63;102322.66;4965525;28;20026;-72
2023/05/27 08:34:53;;;;;;;14.88;4.53;;;;;;;21.03;45.48;102324.28;4981479;28;20058;-72
2023/05/27 08:37:18;;;;;;;22.80;5.03;;;;;;;21.56;44.32;102319.47;4974231;28;20418;-72
2023/05/27 08:39:46;;;;;;;16.63;4.65;;;;;;;21.81;44.40;102314.53;4977798;28;20104;-72
2023/05/27 08:42:27;;;;;;;20.60;4.95;;;;;;;21.68;44.30;102317.09;4984552;28;20334;-72
2023/05/27 08:44:52;;;;;;;18.85;4.85;;;;;;;21.83;42.47;102311.69;4979564;28;20050;-72
2023/05/27 08:47:19;;;;;;;15.80;4.03;;;;;;;21.86;42.82;102309.50;4978100;28;20045;-72
2023/05/27 08:49:45;;;;;;;17.35;4.15;;;;;;;21.74;43.84;102311.06;4972439;28;20046;-72
2023/05/27 08:52:14;;;;;;;24.45;5.45;;;;;;;21.96;43.21;102302.06;4977282;28;20038;-72
2023/05/27 08:54:41;;;;;;;17.77;5.50;;;;;;;22.10;41.96;102299.47;4966108;28;20078;-73
2023/05/27 08:57:12;;;;;;;21.40;5.68;;;;;;;21.82;43.17;102299.53;4979755;28;20033;-72
2023/05/27 08:59:38;;;;;;;14.35;4.60;;;;;;;21.90;43.76;102294.88;4982433;28;20042;-73
2023/05/27 09:02:13;;;;;;;16.90;4.65;;;;;;;21.56;44.17;102295.72;4979159;28;20034;-72
2023/05/27 09:04:39;;;;;;;15.43;4.07;;;;;;;21.71;43.60;102295.59;4976119;28;20409;-72
2023/05/27 09:07:05;;;;;;;18.65;4.80;;;;;;;21.72;42.57;102287.50;4982703;28;20587;-72
2023/05/27 09:09:31;;;;;;;24.00;6.60;;;;;;;21.45;44.42;102286.50;4980424;28;20043;-72
2023/05/27 09:12:01;;;;;;;21.08;4.60;;;;;;;21.69;43.22;102287.88;4978779;28;20045;-72
2023/05/27 09:14:29;;;;;;;20.63;5.80;;;;;;;21.85;42.96;102285.91;4988062;28;20054;-72
2023/05/27 09:16:55;;;;;;;21.10;4.35;;;;;;;22.29;43.49;102274.97;4967036;28;20352;-72
2023/05/27 09:19:21;;;;;;;19.30;4.35;;;;;;;21.88;42.84;102282.91;4962046;28;20123;-72
2023/05/27 09:21:46;;;;;;;14.55;4.30;;;;;;;21.86;43.39;102275.16;4978378;28;20204;-72
2023/05/27 09:24:12;;;;;;;19.25;4.70;;;;;;;22.19;41.43;102266.59;4957883;28;20054;-72
2023/05/27 09:26:38;;;;;;;19.80;4.57;;;;;;;22.55;40.56;102255.72;4980467;28;20035;-72
2023/05/27 09:29:07;;;;;;;17.60;4.82;;;;;;;22.46;41.59;102264.06;4983579;28;20097;-72
2023/05/27 09:31:42;;;;;;;13.65;4.88;;;;;;;22.32;41.79;102265.81;4979945;28;20213;-72
2023/05/27 09:34:15;;;;;;;21.63;4.75;;;;;;;22.37;40.69;102258.13;4960953;28;20053;-72
2023/05/27 09:36:49;;;;;;;22.27;5.78;;;;;;;22.05;41.47;102238.50;4978957;28;20034;-72
2023/05/27 09:39:16;;;;;;;33.17;5.20;;;;;;;22.38;42.14;102243.91;4958294;28;20426;-72
2023/05/27 09:41:42;;;;;;;20.27;4.78;;;;;;;22.39;41.08;102244.72;4982867;28;20043;-72
2023/05/27 09:44:08;;;;;;;15.27;4.82;;;;;;;22.70;41.00;102239.69;4977287;28;20053;-72
2023/05/27 09:46:35;;;;;;;20.33;5.35;;;;;;;22.58;42.13;102243.94;4976523;28;20045;-72
2023/05/27 09:49:02;;;;;;;21.33;5.55;;;;;;;22.06;42.26;102238.31;4954949;28;20434;-72
2023/05/27 09:51:28;;;;;;;19.35;5.45;;;;;;;22.40;42.84;102239.25;4974880;28;20034;-72
2023/05/27 09:53:57;;;;;;;18.67;5.05;;;;;;;22.50;42.54;102238.84;4975002;28;20077;-72
2023/05/27 09:56:26;;;;;;;18.40;5.60;;;;;;;22.54;41.55;102234.78;4979477;28;20068;-72
2023/05/27 09:58:55;;;;;;;21.75;6.38;;;;;;;22.23;41.84;102240.59;4975823;28;20042;-73
2023/05/27 10:01:21;;;;;;;21.83;6.05;;;;;;;22.62;41.89;102229.31;4974876;28;20108;-72
2023/05/27 10:03:47;;;;;;;16.08;5.03;;;;;;;22.90;41.30;102225.66;4976624;28;20042;-72
2023/05/27 10:06:15;;;;;;;16.02;5.70;;;;;;;22.33;42.13;102227.84;4977947;28;20096;-73
2023/05/27 10:08:42;;;;;;;17.02;4.60;;;;;;;21.83;41.36;102220.16;4978761;28;20053;-73
2023/05/27 10:11:12;;;;;;;17.50;5.00;;;;;;;22.27;41.62;102218.06;4979728;28;20088;-72
2023/05/27 10:13:38;;;;;;;20.00;5.10;;;;;;;22.39;41.26;102213.00;4983502;28;20054;-72
2023/05/27 10:16:03;;;;;;;21.08;4.53;;;;;;;22.31;40.83;102211.38;4976443;28;20531;-72
2023/05/27 10:18:30;;;;;;;19.58;4.70;;;;;;;22.10;41.90;102204.38;4977618;28;20053;-72
2023/05/27 10:21:03;;;;;;;19.38;4.40;;;;;;;22.19;40.70;102207.66;4976119;28;20031;-72
2023/05/27 10:23:28;;;;;;;;;;;;;;;22.17;38.69;102210.50;4994548;28;20109;-72
2023/05/27 10:25:58;;;;;;;14.85;3.72;;;;;;;22.30;39.33;102201.81;4976541;28;19921;-72
2023/05/27 10:28:31;;;;;;;17.42;5.13;;;;;;;22.21;40.72;102206.44;4960440;28;20177;-72
2023/05/27 10:31:17;;;;;;;19.25;4.60;;;;;;;22.65;39.41;102205.09;4972451;28;20350;-73
2023/05/27 10:33:45;;;;;;;22.42;6.78;;;;;;;22.85;38.54;102196.34;4979533;28;20177;-72
2023/05/27 10:36:11;;;;;;;15.20;4.10;;;;;;;23.05;39.04;102189.25;4980415;28;20050;-72
2023/05/27 10:38:37;;;;;;;25.65;5.88;;;;;;;22.82;39.96;102184.38;4974920;28;20104;-72
2023/05/27 10:41:06;;;;;;;16.65;4.78;;;;;;;22.12;39.75;102182.03;4977919;28;20038;-72
2023/05/27 10:43:35;;;;;;;17.92;4.55;;;;;;;22.53;39.00;102180.31;4970698;28;20063;-72
2023/05/27 10:46:07;;;;;;;16.63;4.78;;;;;;;22.94;39.30;102179.25;4974596;28;20034;-72
2023/05/27 10:48:33;;;;;;;16.08;4.03;;;;;;;23.36;39.57;102176.38;4980079;28;20113;-72
2023/05/27 10:50:59;;;;;;;22.58;5.00;;;;;;;23.75;37.96;102161.34;4992822;28;20042;-72
2023/05/27 10:53:29;;;;;;;16.50;4.55;;;;;;;23.76;38.26;102168.28;4975740;28;20039;-72
2023/05/27 10:55:58;;;;;;;20.38;4.45;;;;;;;23.39;38.26;102165.38;4977821;28;20117;-72
2023/05/27 10:58:23;;;;;;;16.98;4.40;;;;;;;23.75;37.00;102159.50;4973008;28;20089;-72
2023/05/27 11:00:51;;;;;;;14.02;4.40;;;;;;;24.17;37.74;102153.84;4974538;28;20049;-72
2023/05/27 11:03:21;;;;;;;19.08;4.05;;;;;;;24.40;37.40;102150.59;4976397;28;20050;-72
2023/05/27 11:05:47;;;;;;;12.65;4.05;;;;;;;24.06;36.42;102150.81;4974377;28;20030;-72
2023/05/27 11:08:13;;;;;;;26.05;5.40;;;;;;;23.49;37.02;102142.75;4973971;28;20296;-72
2023/05/27 11:10:42;;;;;;;16.00;4.00;;;;;;;23.42;38.47;102138.50;4959323;28;20519;-72
2023/05/27 11:13:08;;;;;;;14.70;3.92;;;;;;;23.49;39.67;102140.09;4978458;28;20023;-72
2023/05/27 11:15:33;;;;;;;16.88;4.60;;;;;;;23.79;38.36;102134.28;4974432;28;20026;-72
2023/05/27 11:18:05;;;;;;;12.60;4.55;;;;;;;23.52;36.59;102131.72;4977738;28;20069;-72
2023/05/27 11:20:37;;;;;;;18.77;4.50;;;;;;;23.66;38.23;102129.84;4975348;28;20038;-73
2023/05/27 11:23:03;;;;;;;22.30;5.45;;;;;;;23.64;36.93;102129.25;4975145;28;20046;-72
2023/05/27 11:25:40;;;;;;;19.92;5.95;;;;;;;23.71;36.35;102129.19;4975996;28;20034;-72